EZY92QG EGKK-LEPA
Flight info
| Callsign | EZY92QG |
|---|---|
| Flight time | N/A |
| Altitude | 23000 |
| Route | SFD Y47 DRAKE/N0435F330 L151 SITET UN859 SOPIL DCT BALAN DCT EVPOK DCT NARAK DCT GAI DCT LOMRA DCT ROCAN DCT IBRAP DCT LUKEV DCT LORES |
| Aircraft | A320/M-SDE3FGHIRWY/LB1 |
Departure
| Time | N/A |
|---|---|
| Airport | London Gatwick Airport (EGKK) |
Arrival
| Time | 2026-05-04 16:31 |
|---|---|
| Airport | Palma de Mallorca Airport (LEPA) |
| Time | Latitude | Longitude | Altitude | Speed | Heading |
|---|---|---|---|---|---|
| 2026-05-04 15:56 | 41.96933 | 2.19761 | 32584 ft | 381 kts | 174° |
| 2026-05-04 15:57 | 41.94332 | 2.20509 | 32834 ft | 385 kts | 174° |
| 2026-05-04 15:57 | 41.91695 | 2.21344 | 32920 ft | 394 kts | 172° |
| 2026-05-04 15:57 | 41.86326 | 2.23324 | 32929 ft | 400 kts | 171° |
| 2026-05-04 15:58 | 41.80969 | 2.25338 | 32928 ft | 399 kts | 172° |
| 2026-05-04 15:58 | 41.75599 | 2.27247 | 32934 ft | 399 kts | 172° |
| 2026-05-04 15:59 | 41.70228 | 2.29101 | 32938 ft | 399 kts | 172° |
| 2026-05-04 15:59 | 41.64855 | 2.30960 | 32939 ft | 398 kts | 172° |
| 2026-05-04 16:00 | 41.60399 | 2.32512 | 32934 ft | 398 kts | 172° |
| 2026-05-04 16:00 | 41.55037 | 2.34382 | 32929 ft | 398 kts | 172° |
| 2026-05-04 16:01 | 41.49674 | 2.36247 | 32927 ft | 398 kts | 172° |
| 2026-05-04 16:01 | 41.44310 | 2.38103 | 32921 ft | 398 kts | 173° |
| 2026-05-04 16:02 | 41.38918 | 2.39961 | 32924 ft | 398 kts | 173° |
| 2026-05-04 16:03 | 41.30881 | 2.42735 | 32941 ft | 398 kts | 173° |
| 2026-05-04 16:03 | 41.25523 | 2.44576 | 32933 ft | 397 kts | 173° |
| 2026-05-04 16:04 | 41.20172 | 2.46414 | 32930 ft | 397 kts | 173° |
| 2026-05-04 16:04 | 41.12141 | 2.49171 | 32915 ft | 397 kts | 173° |
| 2026-05-04 16:05 | 41.06790 | 2.51006 | 32906 ft | 397 kts | 173° |
| 2026-05-04 16:05 | 41.01396 | 2.52844 | 32914 ft | 408 kts | 173° |
| 2026-05-04 16:06 | 40.98621 | 2.53781 | 32913 ft | 414 kts | 173° |
| 2026-05-04 16:06 | 40.91143 | 2.56337 | 31681 ft | 413 kts | 172° |
| 2026-05-04 16:07 | 40.87481 | 2.57593 | 30159 ft | 408 kts | 172° |
| 2026-05-04 16:07 | 40.79375 | 2.60351 | 27941 ft | 393 kts | 172° |
| 2026-05-04 16:08 | 40.76743 | 2.61247 | 27470 ft | 387 kts | 172° |
| 2026-05-04 16:08 | 40.69087 | 2.63849 | 26117 ft | 372 kts | 173° |
| 2026-05-04 16:09 | 40.64123 | 2.65520 | 25242 ft | 364 kts | 173° |
| 2026-05-04 16:09 | 40.59255 | 2.67148 | 24388 ft | 358 kts | 173° |
| 2026-05-04 16:10 | 40.54436 | 2.68766 | 23507 ft | 353 kts | 173° |
| 2026-05-04 16:11 | 40.47533 | 2.72022 | 22068 ft | 356 kts | 158° |
| 2026-05-04 16:11 | 40.45376 | 2.73601 | 21602 ft | 354 kts | 158° |
| 2026-05-04 16:12 | 40.38955 | 2.78270 | 20212 ft | 350 kts | 157° |
| 2026-05-04 16:12 | 40.32581 | 2.82883 | 18837 ft | 348 kts | 156° |
| 2026-05-04 16:13 | 40.28338 | 2.85933 | 17898 ft | 348 kts | 156° |
| 2026-05-04 16:13 | 40.24125 | 2.88967 | 17098 ft | 341 kts | 156° |
| 2026-05-04 16:14 | 40.20086 | 2.91888 | 16679 ft | 325 kts | 156° |
| 2026-05-04 16:14 | 40.16127 | 2.94739 | 15785 ft | 321 kts | 156° |
| 2026-05-04 16:15 | 40.10382 | 2.98858 | 14325 ft | 310 kts | 156° |
| 2026-05-04 16:16 | 40.06625 | 3.01544 | 13704 ft | 306 kts | 156° |
| 2026-05-04 16:16 | 40.01050 | 3.05529 | 12190 ft | 299 kts | 156° |
| 2026-05-04 16:17 | 39.97421 | 3.08174 | 11356 ft | 305 kts | 149° |
| 2026-05-04 16:18 | 39.92711 | 3.13616 | 10479 ft | 296 kts | 142° |
| 2026-05-04 16:18 | 39.91201 | 3.15432 | 10134 ft | 294 kts | 142° |
| 2026-05-04 16:19 | 39.86754 | 3.20785 | 8592 ft | 286 kts | 142° |
| 2026-05-04 16:19 | 39.83833 | 3.24239 | 7543 ft | 281 kts | 142° |
| 2026-05-04 16:20 | 39.79479 | 3.29236 | 6242 ft | 273 kts | 150° |
| 2026-05-04 16:20 | 39.76012 | 3.29748 | 5454 ft | 252 kts | 207° |
| 2026-05-04 16:21 | 39.73459 | 3.24056 | 5100 ft | 255 kts | 252° |
| 2026-05-04 16:22 | 39.72469 | 3.19661 | 4964 ft | 254 kts | 252° |
| 2026-05-04 16:22 | 39.71482 | 3.15250 | 4966 ft | 254 kts | 252° |
| 2026-05-04 16:23 | 39.70413 | 3.10499 | 4970 ft | 224 kts | 253° |
| 2026-05-04 16:24 | 39.68685 | 3.04219 | 4858 ft | 184 kts | 240° |
| 2026-05-04 16:25 | 39.67392 | 3.01375 | 4419 ft | 183 kts | 238° |
| 2026-05-04 16:26 | 39.64766 | 2.95768 | 3464 ft | 181 kts | 239° |
| 2026-05-04 16:26 | 39.62790 | 2.91559 | 2745 ft | 182 kts | 238° |
| 2026-05-04 16:27 | 39.61495 | 2.88804 | 2283 ft | 175 kts | 237° |
| 2026-05-04 16:28 | 39.59673 | 2.84933 | 1602 ft | 161 kts | 237° |
| 2026-05-04 16:28 | 39.58062 | 2.81513 | 1023 ft | 134 kts | 237° |
| 2026-05-04 16:29 | 39.56201 | 2.77564 | 329 ft | 126 kts | 236° |
| 2026-05-04 16:30 | 39.54948 | 2.74911 | 38 ft | 70 kts | 238° |
| 2026-05-04 16:31 | 39.54803 | 2.74279 | 38 ft | 13 kts | 268° |